Bayou Chene — WDG7001 — position and weather

sailwx.info

Track history (hours):
 
Tides and Currents Weather Stations Pressure Air Temp Water Temp Dewpoint Dewpoint Depression Visibility Wind Speed Wind Dir Waves Ship Positions

Bayou Chene

Owner: Weeks Marine, Inc, Cranford, NJ. More information available from US FCC via Universal Licensing System and Coast Guard Vessel Documentation Center.

Last reported at 2017-Sep-20 01:58 UTC. Time now 2017-Sep-20 02:05 UTC.
Position N 36°48' W 076°17'.

Length 14 m.

Type: Dredging. MMSI: 367562850.

Date/timePositionNaut miles runAvg speedWind from/ knotsBaromVisibWave heightAir tempDewpointWater temp
2017-Sep-20 01:58N 36°48' W 076°17'0 0.0
2017-Sep-20 01:28N 36°48' W 076°17'0 0.0
2017-Sep-20 00:58N 36°48' W 076°17'0 0.0
2017-Sep-20 00:28N 36°48' W 076°17'0 0.0
2017-Sep-19 23:58N 36°48' W 076°17'0 0.0
2017-Sep-19 23:28N 36°48' W 076°17'0 0.0
2017-Sep-19 22:58N 36°48' W 076°17'0 0.0
2017-Sep-19 22:28N 36°48' W 076°17'0 0.0
2017-Sep-19 21:58N 36°48' W 076°17'0 0.0
2017-Sep-19 21:28N 36°48' W 076°17'0 0.0
2017-Sep-19 20:58N 36°48' W 076°17'0 0.0
2017-Sep-19 20:28N 36°48' W 076°17'0 0.0
2017-Sep-19 19:58N 36°48' W 076°17'0 0.0
2017-Sep-19 19:28N 36°48' W 076°17'0 0.0
2017-Sep-19 18:58N 36°48' W 076°17'0 0.0
2017-Sep-19 18:28N 36°48' W 076°17'0 0.0
2017-Sep-19 17:58N 36°48' W 076°17'0 0.0
2017-Sep-19 17:28N 36°48' W 076°17'0 0.0
2017-Sep-19 16:58N 36°48' W 076°17'0 0.0
2017-Sep-19 16:28N 36°48' W 076°17'0 0.0
2017-Sep-19 15:58N 36°48' W 076°17'0 0.0
2017-Sep-19 15:28N 36°48' W 076°17'0 0.0
2017-Sep-19 14:58N 36°48' W 076°17'0 0.0
2017-Sep-19 14:28N 36°48' W 076°17'0 0.0
2017-Sep-19 13:58N 36°48' W 076°17'0 0.0
2017-Sep-19 13:28N 36°48' W 076°17'0 0.0
2017-Sep-19 12:58N 36°48' W 076°17'0 0.0
2017-Sep-19 12:28N 36°48' W 076°17'0 0.0
2017-Sep-19 11:58N 36°48' W 076°17'0 0.0
2017-Sep-19 11:28N 36°48' W 076°17'0 0.0
2017-Sep-19 10:58N 36°48' W 076°17'0 0.0
2017-Sep-18 20:20N 36°48' W 076°17'0 0.0
2017-Sep-18 19:59N 36°48' W 076°17'0 0.0
2017-Sep-18 19:29N 36°48' W 076°17'2 3.5
2017-Sep-18 18:54N 36°50' W 076°18'0 0.0
2017-Sep-18 18:27N 36°50' W 076°18'0 0.0
2017-Sep-18 18:00N 36°50' W 076°18'2 3.9
2017-Sep-18 17:29N 36°48' W 076°17'0 0.0
2017-Sep-18 16:59N 36°48' W 076°17'0 0.0
2017-Sep-18 16:29N 36°48' W 076°17'0 0.0
2017-Sep-18 15:59N 36°48' W 076°17'0 0.0
2017-Sep-18 15:29N 36°48' W 076°17'0 0.0
2017-Sep-18 14:59N 36°48' W 076°17'0 0.0
2017-Sep-18 14:29N 36°48' W 076°17'0 0.0
2017-Sep-18 13:59N 36°48' W 076°17'0 0.0
2017-Sep-18 13:29N 36°48' W 076°17'0 0.0
2017-Sep-17 23:06N 36°48' W 076°17'0 0.0
2017-Sep-17 23:00N 36°48' W 076°17'0 0.0
2017-Sep-17 22:30N 36°48' W 076°17'15615.7
2017-Sep-17 12:36N 39°23' W 076°05'217.0
2017-Sep-17 12:29N 39°24' W 076°02'816.6
2017-Sep-17 12:00N 39°30' W 075°55'5 0.4
2017-Sep-16 21:47N 39°32' W 075°49'0 0.0
2017-Sep-16 21:29N 39°32' W 075°49'0 0.1
2017-Sep-16 20:59N 39°32' W 075°49'1 1.4
2017-Sep-16 20:30N 39°32' W 075°48'713.4
2017-Sep-16 20:00N 39°33' W 075°39'510.5
2017-Sep-16 19:30N 39°32' W 075°33'714.3
2017-Sep-16 19:00N 39°25' W 075°31'714.5
2017-Sep-16 18:30N 39°20' W 075°25'715.0
2017-Sep-16 18:00N 39°14' W 075°18'36 7.2
2017-Sep-16 13:02N 39°19' W 074°32'0 0.0
2017-Sep-16 12:38N 39°19' W 074°32'0 0.0
2017-Sep-16 12:29N 39°19' W 074°32'0 0.0
2017-Sep-16 10:50N 39°19' W 074°32'0 0.0
2017-Sep-16 10:29N 39°19' W 074°32'0 0.0
2017-Sep-16 09:38N 39°19' W 074°32'0 0.0
2017-Sep-16 06:02N 39°19' W 074°32'0 0.0
2017-Sep-14 09:00N 39°19' W 074°32'0 0.0
2017-Sep-14 08:30N 39°19' W 074°32'0 0.0
2017-Sep-14 08:00N 39°19' W 074°32'0 0.0
2017-Sep-14 07:30N 39°19' W 074°32'0 0.0
2017-Sep-14 07:00N 39°19' W 074°32'0 0.0
2017-Sep-14 06:27N 39°19' W 074°32'0 0.0
2017-Sep-14 06:00N 39°19' W 074°32'5 0.3
2017-Sep-13 13:19N 39°19' W 074°25'614.5
2017-Sep-13 12:56N 39°18' W 074°33'1 1.5
2017-Sep-13 12:30N 39°19' W 074°32'1 2.4
2017-Sep-13 11:59N 39°18' W 074°32'816.2
2017-Sep-13 11:28N 39°21' W 074°22'2 3.3
2017-Sep-13 11:00N 39°21' W 074°20'816.9
2017-Sep-13 10:30N 39°17' W 074°30'  
Track history (hours):
 
Tides and Currents Weather Stations Pressure Air Temp Water Temp Dewpoint Dewpoint Depression Visibility Wind Speed Wind Dir Waves Ship Positions

Bayou Chene

Owner: Weeks Marine, Inc, Cranford, NJ. More information available from US FCC via Universal Licensing System and Coast Guard Vessel Documentation Center.

Last reported at 2017-Sep-20 01:58 UTC. Time now 2017-Sep-20 02:05 UTC.
Position N 36°48' W 076°17'.

Length 14 m.

Type: Dredging. MMSI: 367562850.

Date/timePositionNaut miles runAvg speedWind from/ knotsBaromVisibWave heightAir tempDewpointWater temp
2017-Sep-20 01:58N 36°48' W 076°17'0 0.0
2017-Sep-20 01:28N 36°48' W 076°17'0 0.0
2017-Sep-20 00:58N 36°48' W 076°17'0 0.0
2017-Sep-20 00:28N 36°48' W 076°17'0 0.0
2017-Sep-19 23:58N 36°48' W 076°17'0 0.0
2017-Sep-19 23:28N 36°48' W 076°17'0 0.0
2017-Sep-19 22:58N 36°48' W 076°17'0 0.0
2017-Sep-19 22:28N 36°48' W 076°17'0 0.0
2017-Sep-19 21:58N 36°48' W 076°17'0 0.0
2017-Sep-19 21:28N 36°48' W 076°17'0 0.0
2017-Sep-19 20:58N 36°48' W 076°17'0 0.0
2017-Sep-19 20:28N 36°48' W 076°17'0 0.0
2017-Sep-19 19:58N 36°48' W 076°17'0 0.0
2017-Sep-19 19:28N 36°48' W 076°17'0 0.0
2017-Sep-19 18:58N 36°48' W 076°17'0 0.0
2017-Sep-19 18:28N 36°48' W 076°17'0 0.0
2017-Sep-19 17:58N 36°48' W 076°17'0 0.0
2017-Sep-19 17:28N 36°48' W 076°17'0 0.0
2017-Sep-19 16:58N 36°48' W 076°17'0 0.0
2017-Sep-19 16:28N 36°48' W 076°17'0 0.0
2017-Sep-19 15:58N 36°48' W 076°17'0 0.0
2017-Sep-19 15:28N 36°48' W 076°17'0 0.0
2017-Sep-19 14:58N 36°48' W 076°17'0 0.0
2017-Sep-19 14:28N 36°48' W 076°17'0 0.0
2017-Sep-19 13:58N 36°48' W 076°17'0 0.0
2017-Sep-19 13:28N 36°48' W 076°17'0 0.0
2017-Sep-19 12:58N 36°48' W 076°17'0 0.0
2017-Sep-19 12:28N 36°48' W 076°17'0 0.0
2017-Sep-19 11:58N 36°48' W 076°17'0 0.0
2017-Sep-19 11:28N 36°48' W 076°17'0 0.0
2017-Sep-19 10:58N 36°48' W 076°17'0 0.0
2017-Sep-18 20:20N 36°48' W 076°17'0 0.0
2017-Sep-18 19:59N 36°48' W 076°17'0 0.0
2017-Sep-18 19:29N 36°48' W 076°17'2 3.5
2017-Sep-18 18:54N 36°50' W 076°18'0 0.0
2017-Sep-18 18:27N 36°50' W 076°18'0 0.0
2017-Sep-18 18:00N 36°50' W 076°18'2 3.9
2017-Sep-18 17:29N 36°48' W 076°17'0 0.0
2017-Sep-18 16:59N 36°48' W 076°17'0 0.0
2017-Sep-18 16:29N 36°48' W 076°17'0 0.0
2017-Sep-18 15:59N 36°48' W 076°17'0 0.0
2017-Sep-18 15:29N 36°48' W 076°17'0 0.0
2017-Sep-18 14:59N 36°48' W 076°17'0 0.0
2017-Sep-18 14:29N 36°48' W 076°17'0 0.0
2017-Sep-18 13:59N 36°48' W 076°17'0 0.0
2017-Sep-18 13:29N 36°48' W 076°17'0 0.0
2017-Sep-17 23:06N 36°48' W 076°17'0 0.0
2017-Sep-17 23:00N 36°48' W 076°17'0 0.0
2017-Sep-17 22:30N 36°48' W 076°17'15615.7
2017-Sep-17 12:36N 39°23' W 076°05'217.0
2017-Sep-17 12:29N 39°24' W 076°02'816.6
2017-Sep-17 12:00N 39°30' W 075°55'5 0.4
2017-Sep-16 21:47N 39°32' W 075°49'0 0.0
2017-Sep-16 21:29N 39°32' W 075°49'0 0.1
2017-Sep-16 20:59N 39°32' W 075°49'1 1.4
2017-Sep-16 20:30N 39°32' W 075°48'713.4
2017-Sep-16 20:00N 39°33' W 075°39'510.5
2017-Sep-16 19:30N 39°32' W 075°33'714.3
2017-Sep-16 19:00N 39°25' W 075°31'714.5
2017-Sep-16 18:30N 39°20' W 075°25'715.0
2017-Sep-16 18:00N 39°14' W 075°18'36 7.2
2017-Sep-16 13:02N 39°19' W 074°32'0 0.0
2017-Sep-16 12:38N 39°19' W 074°32'0 0.0
2017-Sep-16 12:29N 39°19' W 074°32'0 0.0
2017-Sep-16 10:50N 39°19' W 074°32'0 0.0
2017-Sep-16 10:29N 39°19' W 074°32'0 0.0
2017-Sep-16 09:38N 39°19' W 074°32'0 0.0
2017-Sep-16 06:02N 39°19' W 074°32'0 0.0
2017-Sep-14 09:00N 39°19' W 074°32'0 0.0
2017-Sep-14 08:30N 39°19' W 074°32'0 0.0
2017-Sep-14 08:00N 39°19' W 074°32'0 0.0
2017-Sep-14 07:30N 39°19' W 074°32'0 0.0
2017-Sep-14 07:00N 39°19' W 074°32'0 0.0
2017-Sep-14 06:27N 39°19' W 074°32'0 0.0
2017-Sep-14 06:00N 39°19' W 074°32'5 0.3
2017-Sep-13 13:19N 39°19' W 074°25'614.5
2017-Sep-13 12:56N 39°18' W 074°33'1 1.5
2017-Sep-13 12:30N 39°19' W 074°32'1 2.4
2017-Sep-13 11:59N 39°18' W 074°32'816.2
2017-Sep-13 11:28N 39°21' W 074°22'2 3.3
2017-Sep-13 11:00N 39°21' W 074°20'816.9
2017-Sep-13 10:30N 39°17' W 074°30'  

Dump ship's entire track history